Cascade Spirit — C6BQ5 — position and weather

sailwx.info

Track history (hours):
 
Tides and Currents Weather Stations Pressure Air Temp Water Temp Dewpoint Dewpoint Depression Visibility Wind Speed Wind Dir Waves Ship Positions

Cascade Spirit

Last reported at 2018-May-25 03:42 UTC. Time now 2018-Jun-21 03:01 UTC.
Position N 37°23' W 072°05'.
Warning: this ship's position is 26 days out of date.

Length 275 m; draft 9.6 m.

Type: Tanker. MMSI: 311000335.

Date/timePositionNaut miles runAvg speedWind from/ knotsBaromVisibWave heightAir tempDewpointWater temp
2018-May-25 03:42N 37°23' W 072°05'313.6
2018-May-25 03:30N 37°24' W 072°08'713.4
2018-May-25 03:00N 37°27' W 072°16'713.3
2018-May-25 02:30N 37°30' W 072°23'812.9
2018-May-25 01:51N 37°34' W 072°32'412.7
2018-May-25 01:30N 37°36' W 072°37'713.3
2018-May-25 00:59N 37°39' W 072°45'612.3
2018-May-25 00:30N 37°42' W 072°52'612.5
2018-May-25 00:00N 37°45' W 072°59'612.6
2018-May-24 23:30N 37°48' W 073°06'612.4
2018-May-24 22:59N 37°51' W 073°13'1512.2
2018-May-24 21:45N 37°57' W 073°30'8511.7
2018-May-24 14:31N 38°44' W 074°60'011.3
2018-May-24 14:30N 38°44' W 074°60'612.6
2018-May-24 13:59N 38°50' W 075°05'714.6
2018-May-24 13:30N 38°57' W 075°07'5211.6
2018-May-24 09:00N 39°46' W 075°29'5 9.6
2018-May-24 08:31N 39°49' W 075°24'510.6
2018-May-24 08:00N 39°51' W 075°18'4 7.3
2018-May-24 07:30N 39°52' W 075°13'0 0.3
2018-May-24 06:59N 39°52' W 075°13'0 0.0
2018-May-24 06:29N 39°52' W 075°13'0 0.0
2018-May-24 05:56N 39°52' W 075°13'0 0.0
2018-May-24 05:29N 39°52' W 075°13'0 0.0
2018-May-24 04:59N 39°52' W 075°13'0 0.0
2018-May-24 04:29N 39°52' W 075°13'0 0.0
2018-May-24 03:59N 39°52' W 075°13'0 0.0
2018-May-24 03:29N 39°52' W 075°13'0 0.0
2018-May-24 02:59N 39°52' W 075°13'0 0.0
2018-May-24 02:29N 39°52' W 075°13'0 0.0
2018-May-24 01:59N 39°52' W 075°13'0 0.0
2018-May-24 01:29N 39°52' W 075°13'0 0.0
2018-May-24 00:59N 39°52' W 075°13'0 0.0
2018-May-24 00:29N 39°52' W 075°13'0 0.0
2018-May-23 23:59N 39°52' W 075°13'0 0.0
2018-May-23 23:29N 39°52' W 075°13'0 0.0
2018-May-23 22:59N 39°52' W 075°13'0 0.0
2018-May-23 22:29N 39°52' W 075°13'0 0.0
2018-May-23 21:59N 39°52' W 075°13'0 0.0
2018-May-23 21:29N 39°52' W 075°13'0 0.0
2018-May-23 20:59N 39°52' W 075°13'0 0.0
2018-May-23 20:29N 39°52' W 075°13'0 0.0
2018-May-23 19:59N 39°52' W 075°13'0 0.0
2018-May-23 19:29N 39°52' W 075°13'0 0.0
2018-May-23 18:59N 39°52' W 075°13'0 0.0
2018-May-23 18:29N 39°52' W 075°13'0 0.0
2018-May-23 17:59N 39°52' W 075°13'0 0.0
2018-May-23 17:29N 39°52' W 075°13'0 0.0
2018-May-23 16:59N 39°52' W 075°13'0 0.0
2018-May-23 16:29N 39°52' W 075°13'0 0.0
2018-May-23 15:59N 39°52' W 075°13'0 0.0
2018-May-23 15:29N 39°52' W 075°13'0 0.0
2018-May-23 14:59N 39°52' W 075°13'0 0.0
2018-May-23 14:29N 39°52' W 075°13'0 0.0
2018-May-23 13:59N 39°52' W 075°13'0 0.0
2018-May-23 13:29N 39°52' W 075°13'0 0.0
2018-May-23 00:59N 39°52' W 075°13'0 0.0
2018-May-23 00:29N 39°52' W 075°13'0 0.0
2018-May-22 23:59N 39°52' W 075°13'0 0.0
2018-May-22 23:29N 39°52' W 075°13'0 0.0
2018-May-22 23:00N 39°52' W 075°13'1 1.8
2018-May-22 22:30N 39°52' W 075°14'3 5.5
2018-May-22 22:00N 39°51' W 075°18'4 7.9
2018-May-22 21:30N 39°50' W 075°22'4 7.7
2018-May-22 21:00N 39°48' W 075°27'4 8.4
2018-May-22 20:30N 39°44' W 075°30'4 8.9
2018-May-22 20:00N 39°40' W 075°32'5 9.4
2018-May-22 19:30N 39°36' W 075°34'510.9
2018-May-22 19:00N 39°30' W 075°33'510.7
2018-May-22 18:30N 39°25' W 075°31'612.0
2018-May-22 18:00N 39°21' W 075°26'612.0
2018-May-22 17:30N 39°16' W 075°21'611.4
2018-May-22 17:00N 39°12' W 075°17'611.9
2018-May-22 16:30N 39°06' W 075°12'611.8
2018-May-22 16:00N 39°01' W 075°09'612.0
2018-May-22 15:30N 38°56' W 075°06'2 4.8
2018-May-22 15:01N 38°54' W 075°08'2 3.2
2018-May-22 14:30N 38°55' W 075°09'0 0.1
2018-May-22 14:00N 38°55' W 075°09'0 0.1
2018-May-22 13:30N 38°55' W 075°09'0 0.0
2018-May-22 13:00N 38°55' W 075°09'0 0.0
2018-May-22 12:27N 38°55' W 075°09'0 0.0
2018-May-22 12:00N 38°55' W 075°09'0 0.0
2018-May-22 11:30N 38°55' W 075°09'0 0.0
2018-May-22 11:00N 38°55' W 075°09'0 0.0
2018-May-22 10:30N 38°55' W 075°09'0 0.0
2018-May-22 09:57N 38°55' W 075°09'0 0.2
2018-May-22 09:30N 38°55' W 075°09'0 0.4
2018-May-22 09:00N 38°56' W 075°09'0 0.2
2018-May-22 08:30N 38°56' W 075°09'0 0.1
2018-May-22 07:57N 38°56' W 075°09'0 0.1
2018-May-22 07:27N 38°56' W 075°09'0 0.0
2018-May-22 06:57N 38°56' W 075°09'0 0.0
2018-May-22 06:30N 38°56' W 075°09'0 0.0
2018-May-22 05:57N 38°56' W 075°09'0 0.0
2018-May-22 05:30N 38°56' W 075°09'0 0.1
2018-May-22 05:00N 38°56' W 075°10'0 0.0
2018-May-22 04:30N 38°56' W 075°09'0 0.2
2018-May-22 04:00N 38°56' W 075°10'0 0.1
2018-May-22 03:30N 38°55' W 075°10'0 0.1
2018-May-22 02:57N 38°55' W 075°10'0 0.4
2018-May-22 02:27N 38°55' W 075°09'0 0.2
2018-May-22 02:00N 38°55' W 075°09'0 0.0
2018-May-22 01:30N 38°55' W 075°09'0 0.0
2018-May-22 01:00N 38°55' W 075°09'0 0.0
2018-May-22 00:30N 38°55' W 075°09'0 0.3
2018-May-22 00:00N 38°55' W 075°09'0 0.1
2018-May-21 23:30N 38°55' W 075°09'0 0.0
2018-May-21 23:00N 38°55' W 075°09'0 0.0
2018-May-21 22:30N 38°55' W 075°09'0 0.0
2018-May-21 22:00N 38°55' W 075°09'0 0.1
2018-May-21 21:30N 38°55' W 075°09'0 0.4
2018-May-21 20:57N 38°56' W 075°09'0 0.3
2018-May-21 20:30N 38°56' W 075°09'0 0.1
2018-May-21 19:51N 38°56' W 075°09'0 0.0
2018-May-21 19:30N 38°56' W 075°09'0 0.0
2018-May-21 18:11N 38°56' W 075°09'0 0.1
2018-May-21 17:58N 38°56' W 075°10'0 0.0
2018-May-21 17:26N 38°56' W 075°10'0 0.0
2018-May-21 17:00N 38°56' W 075°10'0 0.0
2018-May-21 16:30N 38°56' W 075°09'0 0.2
2018-May-21 16:00N 38°56' W 075°09'0 0.1
2018-May-21 15:30N 38°55' W 075°10'0 0.4
2018-May-21 14:59N 38°55' W 075°09'0 0.3
2018-May-21 14:30N 38°55' W 075°09'0 0.1
2018-May-21 14:00N 38°55' W 075°09'0 0.0
2018-May-21 13:30N 38°55' W 075°09'0 0.0
2018-May-21 12:53N 38°55' W 075°09'0 0.0
2018-May-21 12:23N 38°55' W 075°09'0 0.0
2018-May-21 11:59N 38°55' W 075°09'0 0.0
2018-May-21 11:29N 38°55' W 075°09'0 0.1
2018-May-21 10:59N 38°55' W 075°09'0 0.0
2018-May-21 10:23N 38°55' W 075°09'0 0.2
2018-May-21 09:59N 38°55' W 075°09'0 0.1
2018-May-21 09:29N 38°55' W 075°09'0 0.0
2018-May-21 08:59N 38°55' W 075°09'0 0.4
2018-May-21 08:23N 38°56' W 075°09'0 0.4
2018-May-21 07:59N 38°56' W 075°09'0 0.1
2018-May-21 07:29N 38°56' W 075°09'0 0.0
2018-May-21 06:53N 38°56' W 075°09'0 0.1
2018-May-21 06:29N 38°56' W 075°09'0 0.0
2018-May-21 05:59N 38°56' W 075°09'0 0.0
2018-May-21 05:29N 38°56' W 075°09'0 0.0
2018-May-21 04:59N 38°56' W 075°09'0 0.0
2018-May-21 04:29N 38°56' W 075°09'0 0.0
2018-May-21 03:59N 38°56' W 075°09'0 0.1
2018-May-21 03:29N 38°56' W 075°09'0 0.1
2018-May-21 02:59N 38°56' W 075°09'0 0.0
2018-May-21 02:29N 38°56' W 075°09'0 0.3
2018-May-21 01:59N 38°55' W 075°10'0 0.4
2018-May-21 01:29N 38°55' W 075°09'0 0.1
2018-May-21 00:59N 38°55' W 075°09'0 0.0
2018-May-21 00:29N 38°55' W 075°09'0 0.0
2018-May-20 23:59N 38°55' W 075°09'0 0.0
2018-May-20 23:29N 38°55' W 075°09'0 0.0
2018-May-20 22:59N 38°55' W 075°09'0 0.1
2018-May-20 22:29N 38°55' W 075°09'0 0.0
2018-May-20 21:53N 38°55' W 075°09'0 0.0
2018-May-20 21:29N 38°55' W 075°09'0 0.0
2018-May-20 14:02N 38°55' W 075°09'0 0.4
2018-May-20 13:59N 38°55' W 075°09'0 0.1
2018-May-20 13:29N 38°55' W 075°09'0 0.0
2018-May-20 12:59N 38°55' W 075°09'0 0.0
2018-May-20 12:26N 38°55' W 075°09'0 0.0
2018-May-20 09:56N 38°55' W 075°09'0 0.1
2018-May-20 09:29N 38°55' W 075°09'0 0.0
2018-May-20 08:44N 38°55' W 075°09'0 0.1
2018-May-20 08:29N 38°55' W 075°09'0 0.0
2018-May-20 07:56N 38°55' W 075°09'0 0.1
2018-May-20 01:50N 38°56' W 075°09'0 0.2
2018-May-20 00:05N 38°55' W 075°09'0 0.1
2018-May-19 23:56N 38°55' W 075°09'0 0.0
2018-May-19 23:29N 38°55' W 075°09'0 0.0
2018-May-19 22:59N 38°55' W 075°09'0 0.0
2018-May-19 22:11N 38°55' W 075°09'0 0.0
2018-May-19 21:50N 38°55' W 075°09'0 0.0
2018-May-19 21:11N 38°55' W 075°09'0 0.0
2018-May-19 20:56N 38°55' W 075°09'0 0.0
2018-May-19 20:23N 38°55' W 075°09'0 0.0
2018-May-19 19:59N 38°55' W 075°09'0 0.1
2018-May-19 13:35N 38°56' W 075°09'0 0.2
2018-May-19 13:29N 38°56' W 075°09'0 0.3
2018-May-19 12:59N 38°55' W 075°10'0 0.2
2018-May-19 11:47N 38°55' W 075°09'0 0.0
2018-May-19 11:11N 38°55' W 075°09'0 0.0
2018-May-19 10:56N 38°55' W 075°09'0 0.0
2018-May-19 10:29N 38°55' W 075°09'0 0.0
2018-May-19 09:44N 38°55' W 075°09'0 0.1
2018-May-19 09:26N 38°55' W 075°09'0 0.1
2018-May-19 06:08N 38°55' W 075°10'0 0.4
2018-May-19 05:41N 38°56' W 075°10'0 0.1
2018-May-19 05:20N 38°56' W 075°09'0 0.0
2018-May-19 04:47N 38°56' W 075°09'0 0.1
2018-May-19 04:26N 38°56' W 075°09'0 0.0
2018-May-19 03:32N 38°56' W 075°09'0 0.1
2018-May-19 03:14N 38°56' W 075°09'0 0.0
2018-May-19 02:26N 38°56' W 075°09'0 0.0
2018-May-19 01:53N 38°56' W 075°09'0 0.1
2018-May-19 01:29N 38°56' W 075°09'0 0.0
2018-May-19 00:44N 38°56' W 075°09'0 0.2
2018-May-18 23:50N 38°55' W 075°10'0 0.0
2018-May-18 17:50N 38°55' W 075°10'0 0.4
2018-May-18 17:26N 38°55' W 075°09'0 0.0
2018-May-18 13:32N 38°56' W 075°09'0 0.1
2018-May-18 13:20N 38°56' W 075°09'0 0.1
2018-May-18 12:44N 38°56' W 075°09'0 0.4
2018-May-18 12:23N 38°55' W 075°10'0 0.4
2018-May-18 11:53N 38°55' W 075°09'0 0.3
2018-May-18 11:26N 38°55' W 075°09'0 0.1
2018-May-18 10:59N 38°55' W 075°09'0 0.0
2018-May-18 10:14N 38°55' W 075°09'0 0.0
2018-May-18 09:59N 38°55' W 075°09'0 0.0
2018-May-18 09:29N 38°55' W 075°09'0 0.1
2018-May-18 08:56N 38°55' W 075°09'0 0.1
2018-May-18 08:29N 38°55' W 075°09'0 0.0
2018-May-18 07:59N 38°55' W 075°09'0 0.0
2018-May-18 06:59N 38°55' W 075°09'0 0.0
2018-May-18 06:20N 38°55' W 075°09'0 0.1
2018-May-18 05:59N 38°55' W 075°09'0 0.2
2018-May-18 05:29N 38°55' W 075°09'0 0.3
2018-May-18 05:00N 38°55' W 075°09'1 0.8
2018-May-18 04:19N 38°55' W 075°09'1 4.3
2018-May-18 04:00N 38°54' W 075°08'3 7.0
2018-May-18 03:30N 38°51' W 075°05'  
Track history (hours):
 
Tides and Currents Weather Stations Pressure Air Temp Water Temp Dewpoint Dewpoint Depression Visibility Wind Speed Wind Dir Waves Ship Positions

Cascade Spirit

Last reported at 2018-May-25 03:42 UTC. Time now 2018-Jun-21 03:01 UTC.
Position N 37°23' W 072°05'.
Warning: this ship's position is 26 days out of date.

Length 275 m; draft 9.6 m.

Type: Tanker. MMSI: 311000335.

Date/timePositionNaut miles runAvg speedWind from/ knotsBaromVisibWave heightAir tempDewpointWater temp
2018-May-25 03:42N 37°23' W 072°05'313.6
2018-May-25 03:30N 37°24' W 072°08'713.4
2018-May-25 03:00N 37°27' W 072°16'713.3
2018-May-25 02:30N 37°30' W 072°23'812.9
2018-May-25 01:51N 37°34' W 072°32'412.7
2018-May-25 01:30N 37°36' W 072°37'713.3
2018-May-25 00:59N 37°39' W 072°45'612.3
2018-May-25 00:30N 37°42' W 072°52'612.5
2018-May-25 00:00N 37°45' W 072°59'612.6
2018-May-24 23:30N 37°48' W 073°06'612.4
2018-May-24 22:59N 37°51' W 073°13'1512.2
2018-May-24 21:45N 37°57' W 073°30'8511.7
2018-May-24 14:31N 38°44' W 074°60'011.3
2018-May-24 14:30N 38°44' W 074°60'612.6
2018-May-24 13:59N 38°50' W 075°05'714.6
2018-May-24 13:30N 38°57' W 075°07'5211.6
2018-May-24 09:00N 39°46' W 075°29'5 9.6
2018-May-24 08:31N 39°49' W 075°24'510.6
2018-May-24 08:00N 39°51' W 075°18'4 7.3
2018-May-24 07:30N 39°52' W 075°13'0 0.3
2018-May-24 06:59N 39°52' W 075°13'0 0.0
2018-May-24 06:29N 39°52' W 075°13'0 0.0
2018-May-24 05:56N 39°52' W 075°13'0 0.0
2018-May-24 05:29N 39°52' W 075°13'0 0.0
2018-May-24 04:59N 39°52' W 075°13'0 0.0
2018-May-24 04:29N 39°52' W 075°13'0 0.0
2018-May-24 03:59N 39°52' W 075°13'0 0.0
2018-May-24 03:29N 39°52' W 075°13'0 0.0
2018-May-24 02:59N 39°52' W 075°13'0 0.0
2018-May-24 02:29N 39°52' W 075°13'0 0.0
2018-May-24 01:59N 39°52' W 075°13'0 0.0
2018-May-24 01:29N 39°52' W 075°13'0 0.0
2018-May-24 00:59N 39°52' W 075°13'0 0.0
2018-May-24 00:29N 39°52' W 075°13'0 0.0
2018-May-23 23:59N 39°52' W 075°13'0 0.0
2018-May-23 23:29N 39°52' W 075°13'0 0.0
2018-May-23 22:59N 39°52' W 075°13'0 0.0
2018-May-23 22:29N 39°52' W 075°13'0 0.0
2018-May-23 21:59N 39°52' W 075°13'0 0.0
2018-May-23 21:29N 39°52' W 075°13'0 0.0
2018-May-23 20:59N 39°52' W 075°13'0 0.0
2018-May-23 20:29N 39°52' W 075°13'0 0.0
2018-May-23 19:59N 39°52' W 075°13'0 0.0
2018-May-23 19:29N 39°52' W 075°13'0 0.0
2018-May-23 18:59N 39°52' W 075°13'0 0.0
2018-May-23 18:29N 39°52' W 075°13'0 0.0
2018-May-23 17:59N 39°52' W 075°13'0 0.0
2018-May-23 17:29N 39°52' W 075°13'0 0.0
2018-May-23 16:59N 39°52' W 075°13'0 0.0
2018-May-23 16:29N 39°52' W 075°13'0 0.0
2018-May-23 15:59N 39°52' W 075°13'0 0.0
2018-May-23 15:29N 39°52' W 075°13'0 0.0
2018-May-23 14:59N 39°52' W 075°13'0 0.0
2018-May-23 14:29N 39°52' W 075°13'0 0.0
2018-May-23 13:59N 39°52' W 075°13'0 0.0
2018-May-23 13:29N 39°52' W 075°13'0 0.0
2018-May-23 00:59N 39°52' W 075°13'0 0.0
2018-May-23 00:29N 39°52' W 075°13'0 0.0
2018-May-22 23:59N 39°52' W 075°13'0 0.0
2018-May-22 23:29N 39°52' W 075°13'0 0.0
2018-May-22 23:00N 39°52' W 075°13'1 1.8
2018-May-22 22:30N 39°52' W 075°14'3 5.5
2018-May-22 22:00N 39°51' W 075°18'4 7.9
2018-May-22 21:30N 39°50' W 075°22'4 7.7
2018-May-22 21:00N 39°48' W 075°27'4 8.4
2018-May-22 20:30N 39°44' W 075°30'4 8.9
2018-May-22 20:00N 39°40' W 075°32'5 9.4
2018-May-22 19:30N 39°36' W 075°34'510.9
2018-May-22 19:00N 39°30' W 075°33'510.7
2018-May-22 18:30N 39°25' W 075°31'612.0
2018-May-22 18:00N 39°21' W 075°26'612.0
2018-May-22 17:30N 39°16' W 075°21'611.4
2018-May-22 17:00N 39°12' W 075°17'611.9
2018-May-22 16:30N 39°06' W 075°12'611.8
2018-May-22 16:00N 39°01' W 075°09'612.0
2018-May-22 15:30N 38°56' W 075°06'2 4.8
2018-May-22 15:01N 38°54' W 075°08'2 3.2
2018-May-22 14:30N 38°55' W 075°09'0 0.1
2018-May-22 14:00N 38°55' W 075°09'0 0.1
2018-May-22 13:30N 38°55' W 075°09'0 0.0
2018-May-22 13:00N 38°55' W 075°09'0 0.0
2018-May-22 12:27N 38°55' W 075°09'0 0.0
2018-May-22 12:00N 38°55' W 075°09'0 0.0
2018-May-22 11:30N 38°55' W 075°09'0 0.0
2018-May-22 11:00N 38°55' W 075°09'0 0.0
2018-May-22 10:30N 38°55' W 075°09'0 0.0
2018-May-22 09:57N 38°55' W 075°09'0 0.2
2018-May-22 09:30N 38°55' W 075°09'0 0.4
2018-May-22 09:00N 38°56' W 075°09'0 0.2
2018-May-22 08:30N 38°56' W 075°09'0 0.1
2018-May-22 07:57N 38°56' W 075°09'0 0.1
2018-May-22 07:27N 38°56' W 075°09'0 0.0
2018-May-22 06:57N 38°56' W 075°09'0 0.0
2018-May-22 06:30N 38°56' W 075°09'0 0.0
2018-May-22 05:57N 38°56' W 075°09'0 0.0
2018-May-22 05:30N 38°56' W 075°09'0 0.1
2018-May-22 05:00N 38°56' W 075°10'0 0.0
2018-May-22 04:30N 38°56' W 075°09'0 0.2
2018-May-22 04:00N 38°56' W 075°10'0 0.1
2018-May-22 03:30N 38°55' W 075°10'0 0.1
2018-May-22 02:57N 38°55' W 075°10'0 0.4
2018-May-22 02:27N 38°55' W 075°09'0 0.2
2018-May-22 02:00N 38°55' W 075°09'0 0.0
2018-May-22 01:30N 38°55' W 075°09'0 0.0
2018-May-22 01:00N 38°55' W 075°09'0 0.0
2018-May-22 00:30N 38°55' W 075°09'0 0.3
2018-May-22 00:00N 38°55' W 075°09'0 0.1
2018-May-21 23:30N 38°55' W 075°09'0 0.0
2018-May-21 23:00N 38°55' W 075°09'0 0.0
2018-May-21 22:30N 38°55' W 075°09'0 0.0
2018-May-21 22:00N 38°55' W 075°09'0 0.1
2018-May-21 21:30N 38°55' W 075°09'0 0.4
2018-May-21 20:57N 38°56' W 075°09'0 0.3
2018-May-21 20:30N 38°56' W 075°09'0 0.1
2018-May-21 19:51N 38°56' W 075°09'0 0.0
2018-May-21 19:30N 38°56' W 075°09'0 0.0
2018-May-21 18:11N 38°56' W 075°09'0 0.1
2018-May-21 17:58N 38°56' W 075°10'0 0.0
2018-May-21 17:26N 38°56' W 075°10'0 0.0
2018-May-21 17:00N 38°56' W 075°10'0 0.0
2018-May-21 16:30N 38°56' W 075°09'0 0.2
2018-May-21 16:00N 38°56' W 075°09'0 0.1
2018-May-21 15:30N 38°55' W 075°10'0 0.4
2018-May-21 14:59N 38°55' W 075°09'0 0.3
2018-May-21 14:30N 38°55' W 075°09'0 0.1
2018-May-21 14:00N 38°55' W 075°09'0 0.0
2018-May-21 13:30N 38°55' W 075°09'0 0.0
2018-May-21 12:53N 38°55' W 075°09'0 0.0
2018-May-21 12:23N 38°55' W 075°09'0 0.0
2018-May-21 11:59N 38°55' W 075°09'0 0.0
2018-May-21 11:29N 38°55' W 075°09'0 0.1
2018-May-21 10:59N 38°55' W 075°09'0 0.0
2018-May-21 10:23N 38°55' W 075°09'0 0.2
2018-May-21 09:59N 38°55' W 075°09'0 0.1
2018-May-21 09:29N 38°55' W 075°09'0 0.0
2018-May-21 08:59N 38°55' W 075°09'0 0.4
2018-May-21 08:23N 38°56' W 075°09'0 0.4
2018-May-21 07:59N 38°56' W 075°09'0 0.1
2018-May-21 07:29N 38°56' W 075°09'0 0.0
2018-May-21 06:53N 38°56' W 075°09'0 0.1
2018-May-21 06:29N 38°56' W 075°09'0 0.0
2018-May-21 05:59N 38°56' W 075°09'0 0.0
2018-May-21 05:29N 38°56' W 075°09'0 0.0
2018-May-21 04:59N 38°56' W 075°09'0 0.0
2018-May-21 04:29N 38°56' W 075°09'0 0.0
2018-May-21 03:59N 38°56' W 075°09'0 0.1
2018-May-21 03:29N 38°56' W 075°09'0 0.1
2018-May-21 02:59N 38°56' W 075°09'0 0.0
2018-May-21 02:29N 38°56' W 075°09'0 0.3
2018-May-21 01:59N 38°55' W 075°10'0 0.4
2018-May-21 01:29N 38°55' W 075°09'0 0.1
2018-May-21 00:59N 38°55' W 075°09'0 0.0
2018-May-21 00:29N 38°55' W 075°09'0 0.0
2018-May-20 23:59N 38°55' W 075°09'0 0.0
2018-May-20 23:29N 38°55' W 075°09'0 0.0
2018-May-20 22:59N 38°55' W 075°09'0 0.1
2018-May-20 22:29N 38°55' W 075°09'0 0.0
2018-May-20 21:53N 38°55' W 075°09'0 0.0
2018-May-20 21:29N 38°55' W 075°09'0 0.0
2018-May-20 14:02N 38°55' W 075°09'0 0.4
2018-May-20 13:59N 38°55' W 075°09'0 0.1
2018-May-20 13:29N 38°55' W 075°09'0 0.0
2018-May-20 12:59N 38°55' W 075°09'0 0.0
2018-May-20 12:26N 38°55' W 075°09'0 0.0
2018-May-20 09:56N 38°55' W 075°09'0 0.1
2018-May-20 09:29N 38°55' W 075°09'0 0.0
2018-May-20 08:44N 38°55' W 075°09'0 0.1
2018-May-20 08:29N 38°55' W 075°09'0 0.0
2018-May-20 07:56N 38°55' W 075°09'0 0.1
2018-May-20 01:50N 38°56' W 075°09'0 0.2
2018-May-20 00:05N 38°55' W 075°09'0 0.1
2018-May-19 23:56N 38°55' W 075°09'0 0.0
2018-May-19 23:29N 38°55' W 075°09'0 0.0
2018-May-19 22:59N 38°55' W 075°09'0 0.0
2018-May-19 22:11N 38°55' W 075°09'0 0.0
2018-May-19 21:50N 38°55' W 075°09'0 0.0
2018-May-19 21:11N 38°55' W 075°09'0 0.0
2018-May-19 20:56N 38°55' W 075°09'0 0.0
2018-May-19 20:23N 38°55' W 075°09'0 0.0
2018-May-19 19:59N 38°55' W 075°09'0 0.1
2018-May-19 13:35N 38°56' W 075°09'0 0.2
2018-May-19 13:29N 38°56' W 075°09'0 0.3
2018-May-19 12:59N 38°55' W 075°10'0 0.2
2018-May-19 11:47N 38°55' W 075°09'0 0.0
2018-May-19 11:11N 38°55' W 075°09'0 0.0
2018-May-19 10:56N 38°55' W 075°09'0 0.0
2018-May-19 10:29N 38°55' W 075°09'0 0.0
2018-May-19 09:44N 38°55' W 075°09'0 0.1
2018-May-19 09:26N 38°55' W 075°09'0 0.1
2018-May-19 06:08N 38°55' W 075°10'0 0.4
2018-May-19 05:41N 38°56' W 075°10'0 0.1
2018-May-19 05:20N 38°56' W 075°09'0 0.0
2018-May-19 04:47N 38°56' W 075°09'0 0.1
2018-May-19 04:26N 38°56' W 075°09'0 0.0
2018-May-19 03:32N 38°56' W 075°09'0 0.1
2018-May-19 03:14N 38°56' W 075°09'0 0.0
2018-May-19 02:26N 38°56' W 075°09'0 0.0
2018-May-19 01:53N 38°56' W 075°09'0 0.1
2018-May-19 01:29N 38°56' W 075°09'0 0.0
2018-May-19 00:44N 38°56' W 075°09'0 0.2
2018-May-18 23:50N 38°55' W 075°10'0 0.0
2018-May-18 17:50N 38°55' W 075°10'0 0.4
2018-May-18 17:26N 38°55' W 075°09'0 0.0
2018-May-18 13:32N 38°56' W 075°09'0 0.1
2018-May-18 13:20N 38°56' W 075°09'0 0.1
2018-May-18 12:44N 38°56' W 075°09'0 0.4
2018-May-18 12:23N 38°55' W 075°10'0 0.4
2018-May-18 11:53N 38°55' W 075°09'0 0.3
2018-May-18 11:26N 38°55' W 075°09'0 0.1
2018-May-18 10:59N 38°55' W 075°09'0 0.0
2018-May-18 10:14N 38°55' W 075°09'0 0.0
2018-May-18 09:59N 38°55' W 075°09'0 0.0
2018-May-18 09:29N 38°55' W 075°09'0 0.1
2018-May-18 08:56N 38°55' W 075°09'0 0.1
2018-May-18 08:29N 38°55' W 075°09'0 0.0
2018-May-18 07:59N 38°55' W 075°09'0 0.0
2018-May-18 06:59N 38°55' W 075°09'0 0.0
2018-May-18 06:20N 38°55' W 075°09'0 0.1
2018-May-18 05:59N 38°55' W 075°09'0 0.2
2018-May-18 05:29N 38°55' W 075°09'0 0.3
2018-May-18 05:00N 38°55' W 075°09'1 0.8
2018-May-18 04:19N 38°55' W 075°09'1 4.3
2018-May-18 04:00N 38°54' W 075°08'3 7.0
2018-May-18 03:30N 38°51' W 075°05'  

Dump ship's entire track history